sensor_id;sensor_type;location;lat;lon;timestamp;pressure;altitude;pressure_sealevel;temperature;humidity
77212;BME280;66206;0.000;0.000;2023-04-25T00:00:23;97148.78;;;22.43;26.25
77212;BME280;66206;0.000;0.000;2023-04-25T00:02:50;97147.17;;;22.60;26.18
77212;BME280;66206;0.000;0.000;2023-04-25T00:05:17;97147.08;;;22.47;26.21
77212;BME280;66206;0.000;0.000;2023-04-25T00:07:43;97144.50;;;22.44;26.18
77212;BME280;66206;0.000;0.000;2023-04-25T00:10:10;97142.16;;;22.48;26.12
77212;BME280;66206;0.000;0.000;2023-04-25T00:12:36;97139.41;;;22.47;26.11
77212;BME280;66206;0.000;0.000;2023-04-25T00:15:03;97140.20;;;22.43;26.11
77212;BME280;66206;0.000;0.000;2023-04-25T00:17:30;97138.62;;;22.43;26.06
77212;BME280;66206;0.000;0.000;2023-04-25T00:19:57;97139.23;;;22.41;25.98
77212;BME280;66206;0.000;0.000;2023-04-25T00:22:23;97141.63;;;22.39;26.09
77212;BME280;66206;0.000;0.000;2023-04-25T00:24:50;97141.49;;;22.45;26.04
77212;BME280;66206;0.000;0.000;2023-04-25T00:27:16;97147.29;;;22.33;26.00
77212;BME280;66206;0.000;0.000;2023-04-25T00:29:43;97148.29;;;22.43;25.92
77212;BME280;66206;0.000;0.000;2023-04-25T00:32:10;97147.12;;;22.43;25.97
77212;BME280;66206;0.000;0.000;2023-04-25T00:34:36;97147.20;;;22.30;26.00
77212;BME280;66206;0.000;0.000;2023-04-25T00:37:03;97148.71;;;22.37;25.95
77212;BME280;66206;0.000;0.000;2023-04-25T00:39:29;97149.02;;;22.33;25.99
77212;BME280;66206;0.000;0.000;2023-04-25T00:41:56;97145.53;;;22.28;25.91
77212;BME280;66206;0.000;0.000;2023-04-25T00:44:23;97144.33;;;22.33;25.93
77212;BME280;66206;0.000;0.000;2023-04-25T00:46:50;97140.59;;;22.24;25.95
77212;BME280;66206;0.000;0.000;2023-04-25T00:49:17;97139.22;;;22.27;26.02
77212;BME280;66206;0.000;0.000;2023-04-25T00:51:44;97140.53;;;22.27;25.99
77212;BME280;66206;0.000;0.000;2023-04-25T00:54:10;97137.58;;;22.24;25.96
77212;BME280;66206;0.000;0.000;2023-04-25T00:56:38;97142.51;;;22.23;25.94
77212;BME280;66206;0.000;0.000;2023-04-25T00:59:04;97137.22;;;22.26;25.95
77212;BME280;66206;0.000;0.000;2023-04-25T01:01:32;97140.31;;;22.23;26.01
77212;BME280;66206;0.000;0.000;2023-04-25T01:03:59;97135.23;;;22.23;25.91
77212;BME280;66206;0.000;0.000;2023-04-25T01:06:26;97133.52;;;22.13;25.94
77212;BME280;66206;0.000;0.000;2023-04-25T01:08:53;97131.89;;;22.24;25.95
77212;BME280;66206;0.000;0.000;2023-04-25T01:11:20;97130.99;;;22.18;25.94
77212;BME280;66206;0.000;0.000;2023-04-25T01:13:46;97133.74;;;22.18;25.95
77212;BME280;66206;0.000;0.000;2023-04-25T01:16:13;97131.17;;;22.16;25.94
77212;BME280;66206;0.000;0.000;2023-04-25T01:18:40;97128.16;;;22.21;25.83
77212;BME280;66206;0.000;0.000;2023-04-25T01:21:07;97128.06;;;22.12;25.94
77212;BME280;66206;0.000;0.000;2023-04-25T01:23:34;97122.79;;;22.13;25.90
77212;BME280;66206;0.000;0.000;2023-04-25T01:26:00;97119.73;;;22.21;25.87
77212;BME280;66206;0.000;0.000;2023-04-25T01:28:28;97118.42;;;22.04;25.94
77212;BME280;66206;0.000;0.000;2023-04-25T01:30:54;97119.97;;;22.13;25.82
77212;BME280;66206;0.000;0.000;2023-04-25T01:33:22;97119.89;;;22.09;25.90
77212;BME280;66206;0.000;0.000;2023-04-25T01:35:49;97116.36;;;22.12;25.84
77212;BME280;66206;0.000;0.000;2023-04-25T01:38:15;97115.77;;;22.20;25.80
77212;BME280;66206;0.000;0.000;2023-04-25T01:40:42;97117.41;;;22.20;25.87
77212;BME280;66206;0.000;0.000;2023-04-25T01:43:11;97117.63;;;21.94;25.89
77212;BME280;66206;0.000;0.000;2023-04-25T01:45:38;97112.71;;;22.16;25.75
77212;BME280;66206;0.000;0.000;2023-04-25T01:48:05;97114.73;;;22.07;25.83
77212;BME280;66206;0.000;0.000;2023-04-25T01:50:31;97124.45;;;22.10;25.79
77212;BME280;66206;0.000;0.000;2023-04-25T01:52:58;97130.30;;;21.96;25.83
77212;BME280;66206;0.000;0.000;2023-04-25T01:55:24;97128.72;;;22.11;25.74
77212;BME280;66206;0.000;0.000;2023-04-25T01:57:51;97130.21;;;22.03;25.92
77212;BME280;66206;0.000;0.000;2023-04-25T02:00:18;97132.31;;;22.10;25.75
77212;BME280;66206;0.000;0.000;2023-04-25T02:02:44;97131.21;;;22.07;25.78
77212;BME280;66206;0.000;0.000;2023-04-25T02:05:11;97133.13;;;22.12;25.67
77212;BME280;66206;0.000;0.000;2023-04-25T02:07:37;97135.39;;;22.18;25.67
77212;BME280;66206;0.000;0.000;2023-04-25T02:10:04;97136.17;;;22.09;25.76
77212;BME280;66206;0.000;0.000;2023-04-25T02:12:31;97134.18;;;22.00;25.79
77212;BME280;66206;0.000;0.000;2023-04-25T02:14:58;97130.95;;;22.06;25.72
77212;BME280;66206;0.000;0.000;2023-04-25T02:17:24;97133.45;;;22.00;25.78
77212;BME280;66206;0.000;0.000;2023-04-25T02:19:51;97132.87;;;22.19;25.76
77212;BME280;66206;0.000;0.000;2023-04-25T02:22:17;97132.20;;;22.01;25.78
77212;BME280;66206;0.000;0.000;2023-04-25T02:24:44;97126.89;;;22.00;25.78
77212;BME280;66206;0.000;0.000;2023-04-25T02:27:11;97129.32;;;21.96;25.76
77212;BME280;66206;0.000;0.000;2023-04-25T02:29:37;97130.52;;;21.98;25.75
77212;BME280;66206;0.000;0.000;2023-04-25T02:32:04;97120.74;;;22.14;25.65
77212;BME280;66206;0.000;0.000;2023-04-25T02:34:31;97120.06;;;21.97;25.68
77212;BME280;66206;0.000;0.000;2023-04-25T02:36:57;97111.05;;;21.96;25.71
77212;BME280;66206;0.000;0.000;2023-04-25T02:39:24;97110.52;;;21.89;25.76
77212;BME280;66206;0.000;0.000;2023-04-25T02:41:50;97107.23;;;22.00;25.71
77212;BME280;66206;0.000;0.000;2023-04-25T02:44:17;97105.02;;;21.91;25.73
77212;BME280;66206;0.000;0.000;2023-04-25T02:46:43;97101.98;;;21.97;25.70
77212;BME280;66206;0.000;0.000;2023-04-25T02:49:10;97100.32;;;22.02;25.77
77212;BME280;66206;0.000;0.000;2023-04-25T02:51:36;97098.75;;;21.87;25.75
77212;BME280;66206;0.000;0.000;2023-04-25T02:54:03;97096.56;;;21.92;25.76
77212;BME280;66206;0.000;0.000;2023-04-25T02:56:30;97095.37;;;21.96;25.72
77212;BME280;66206;0.000;0.000;2023-04-25T02:58:56;97096.50;;;22.03;25.76
77212;BME280;66206;0.000;0.000;2023-04-25T03:01:23;97093.62;;;21.95;25.72
77212;BME280;66206;0.000;0.000;2023-04-25T03:03:49;97089.86;;;21.97;25.74
77212;BME280;66206;0.000;0.000;2023-04-25T03:06:16;97088.40;;;21.91;25.80
77212;BME280;66206;0.000;0.000;2023-04-25T03:08:42;97086.08;;;21.97;25.75
77212;BME280;66206;0.000;0.000;2023-04-25T03:11:09;97081.15;;;21.82;25.86
77212;BME280;66206;0.000;0.000;2023-04-25T03:13:36;97080.60;;;21.99;25.75
77212;BME280;66206;0.000;0.000;2023-04-25T03:16:03;97078.10;;;21.87;25.80
77212;BME280;66206;0.000;0.000;2023-04-25T03:18:29;97079.69;;;21.91;25.86
77212;BME280;66206;0.000;0.000;2023-04-25T03:20:56;97078.99;;;21.95;25.77
77212;BME280;66206;0.000;0.000;2023-04-25T03:23:22;97078.92;;;21.90;25.89
77212;BME280;66206;0.000;0.000;2023-04-25T03:25:49;97078.29;;;21.80;25.90
77212;BME280;66206;0.000;0.000;2023-04-25T03:28:16;97078.06;;;21.84;25.86
77212;BME280;66206;0.000;0.000;2023-04-25T03:30:42;97077.24;;;21.77;25.92
77212;BME280;66206;0.000;0.000;2023-04-25T03:33:09;97076.86;;;21.93;25.80
77212;BME280;66206;0.000;0.000;2023-04-25T03:35:35;97078.68;;;21.84;25.84
77212;BME280;66206;0.000;0.000;2023-04-25T03:38:02;97073.00;;;21.88;25.83
77212;BME280;66206;0.000;0.000;2023-04-25T03:40:29;97071.25;;;21.88;25.80
77212;BME280;66206;0.000;0.000;2023-04-25T03:42:55;97069.77;;;21.76;25.91
77212;BME280;66206;0.000;0.000;2023-04-25T03:45:22;97065.26;;;21.80;25.90
77212;BME280;66206;0.000;0.000;2023-04-25T03:47:48;97066.28;;;21.90;25.80
77212;BME280;66206;0.000;0.000;2023-04-25T03:50:15;97067.17;;;21.86;25.85
77212;BME280;66206;0.000;0.000;2023-04-25T03:52:42;97066.13;;;21.79;25.85
77212;BME280;66206;0.000;0.000;2023-04-25T03:55:09;97066.36;;;21.79;25.91
77212;BME280;66206;0.000;0.000;2023-04-25T03:57:36;97070.96;;;21.92;25.85
77212;BME280;66206;0.000;0.000;2023-04-25T04:00:03;97074.06;;;21.84;25.84
77212;BME280;66206;0.000;0.000;2023-04-25T04:02:29;97073.22;;;21.87;25.85
77212;BME280;66206;0.000;0.000;2023-04-25T04:04:56;97074.55;;;21.71;25.88
77212;BME280;66206;0.000;0.000;2023-04-25T04:07:23;97072.72;;;21.76;25.85
77212;BME280;66206;0.000;0.000;2023-04-25T04:09:49;97077.60;;;21.75;25.85
77212;BME280;66206;0.000;0.000;2023-04-25T04:12:16;97078.49;;;21.90;25.83
77212;BME280;66206;0.000;0.000;2023-04-25T04:14:42;97081.08;;;21.82;25.87
77212;BME280;66206;0.000;0.000;2023-04-25T04:17:09;97081.13;;;21.82;25.81
77212;BME280;66206;0.000;0.000;2023-04-25T04:19:35;97081.28;;;21.79;25.80
77212;BME280;66206;0.000;0.000;2023-04-25T04:22:02;97079.82;;;21.86;25.77
77212;BME280;66206;0.000;0.000;2023-04-25T04:24:29;97083.99;;;21.84;25.81
77212;BME280;66206;0.000;0.000;2023-04-25T04:26:56;97083.97;;;21.84;25.83
77212;BME280;66206;0.000;0.000;2023-04-25T04:29:22;97085.93;;;21.78;25.82
77212;BME280;66206;0.000;0.000;2023-04-25T04:31:49;97082.79;;;21.77;25.81
77212;BME280;66206;0.000;0.000;2023-04-25T04:34:16;97083.11;;;21.83;25.71
77212;BME280;66206;0.000;0.000;2023-04-25T04:36:43;97088.79;;;21.67;25.90
77212;BME280;66206;0.000;0.000;2023-04-25T04:39:09;97087.43;;;21.78;25.80
77212;BME280;66206;0.000;0.000;2023-04-25T04:41:36;97089.16;;;21.90;25.76
77212;BME280;66206;0.000;0.000;2023-04-25T04:44:02;97090.18;;;21.69;25.85
77212;BME280;66206;0.000;0.000;2023-04-25T04:46:29;97092.46;;;21.77;25.88
77212;BME280;66206;0.000;0.000;2023-04-25T04:48:56;97096.87;;;21.88;25.85
77212;BME280;66206;0.000;0.000;2023-04-25T04:51:22;97098.92;;;21.70;25.92
77212;BME280;66206;0.000;0.000;2023-04-25T04:53:49;97100.14;;;21.70;25.86
77212;BME280;66206;0.000;0.000;2023-04-25T04:56:15;97104.69;;;21.67;25.99
77212;BME280;66206;0.000;0.000;2023-04-25T04:58:42;97104.51;;;21.79;25.86
77212;BME280;66206;0.000;0.000;2023-04-25T05:01:08;97107.60;;;21.65;25.87
77212;BME280;66206;0.000;0.000;2023-04-25T05:03:35;97106.96;;;21.74;25.94
77212;BME280;66206;0.000;0.000;2023-04-25T05:06:01;97104.67;;;21.67;25.89
77212;BME280;66206;0.000;0.000;2023-04-25T05:08:28;97106.03;;;21.84;25.86
77212;BME280;66206;0.000;0.000;2023-04-25T05:10:55;97106.55;;;21.84;25.82
77212;BME280;66206;0.000;0.000;2023-04-25T05:13:21;97103.47;;;21.71;25.84
77212;BME280;66206;0.000;0.000;2023-04-25T05:15:48;97104.62;;;21.75;25.85
77212;BME280;66206;0.000;0.000;2023-04-25T05:18:14;97102.29;;;21.84;25.80
77212;BME280;66206;0.000;0.000;2023-04-25T05:20:41;97102.18;;;21.72;25.81
77212;BME280;66206;0.000;0.000;2023-04-25T05:23:07;97101.43;;;21.73;25.89
77212;BME280;66206;0.000;0.000;2023-04-25T05:25:34;97105.21;;;21.74;25.89
77212;BME280;66206;0.000;0.000;2023-04-25T05:28:00;97101.52;;;21.77;25.87
77212;BME280;66206;0.000;0.000;2023-04-25T05:30:27;97104.57;;;21.72;25.87
77212;BME280;66206;0.000;0.000;2023-04-25T05:32:54;97102.04;;;21.79;25.84
77212;BME280;66206;0.000;0.000;2023-04-25T05:35:20;97104.72;;;21.81;25.90
77212;BME280;66206;0.000;0.000;2023-04-25T05:37:47;97103.54;;;21.71;25.81
77212;BME280;66206;0.000;0.000;2023-04-25T05:40:13;97103.24;;;21.63;25.90
77212;BME280;66206;0.000;0.000;2023-04-25T05:42:40;97108.62;;;21.79;25.86
77212;BME280;66206;0.000;0.000;2023-04-25T05:45:07;97111.75;;;21.72;25.95
77212;BME280;66206;0.000;0.000;2023-04-25T05:47:33;97116.19;;;21.75;25.81
77212;BME280;66206;0.000;0.000;2023-04-25T05:50:00;97118.95;;;21.61;25.91
77212;BME280;66206;0.000;0.000;2023-04-25T05:52:26;97121.60;;;21.73;25.77
77212;BME280;66206;0.000;0.000;2023-04-25T05:54:53;97122.56;;;21.66;25.85
77212;BME280;66206;0.000;0.000;2023-04-25T05:57:20;97123.45;;;21.76;25.83
77212;BME280;66206;0.000;0.000;2023-04-25T05:59:47;97125.44;;;21.90;25.66
77212;BME280;66206;0.000;0.000;2023-04-25T06:02:13;97125.12;;;21.79;25.74
77212;BME280;66206;0.000;0.000;2023-04-25T06:04:40;97125.10;;;21.73;25.76
77212;BME280;66206;0.000;0.000;2023-04-25T06:07:06;97128.05;;;21.71;25.80
77212;BME280;66206;0.000;0.000;2023-04-25T06:09:33;97129.83;;;21.69;25.73
77212;BME280;66206;0.000;0.000;2023-04-25T06:12:00;97129.58;;;21.65;25.85
77212;BME280;66206;0.000;0.000;2023-04-25T06:14:27;97130.35;;;21.63;25.90
77212;BME280;66206;0.000;0.000;2023-04-25T06:16:53;97131.44;;;21.72;25.82
77212;BME280;66206;0.000;0.000;2023-04-25T06:19:20;97131.24;;;21.63;25.80
77212;BME280;66206;0.000;0.000;2023-04-25T06:21:46;97133.79;;;21.85;25.86
77212;BME280;66206;0.000;0.000;2023-04-25T06:24:13;97135.65;;;21.67;25.91
77212;BME280;66206;0.000;0.000;2023-04-25T06:26:40;97139.18;;;21.64;25.93
77212;BME280;66206;0.000;0.000;2023-04-25T06:29:06;97141.43;;;21.99;25.84
77212;BME280;66206;0.000;0.000;2023-04-25T06:31:33;97137.89;;;21.58;26.14
77212;BME280;66206;0.000;0.000;2023-04-25T06:33:59;97142.13;;;21.78;25.99
77212;BME280;66206;0.000;0.000;2023-04-25T06:36:26;97139.92;;;21.67;26.10
77212;BME280;66206;0.000;0.000;2023-04-25T06:38:53;97139.87;;;21.79;26.26
77212;BME280;66206;0.000;0.000;2023-04-25T06:41:19;97140.50;;;21.80;26.50
77212;BME280;66206;0.000;0.000;2023-04-25T06:43:46;97138.05;;;21.67;26.69
77212;BME280;66206;0.000;0.000;2023-04-25T06:46:13;97139.29;;;21.68;26.67
77212;BME280;66206;0.000;0.000;2023-04-25T06:48:39;97138.43;;;21.72;26.74
77212;BME280;66206;0.000;0.000;2023-04-25T06:51:06;97136.80;;;21.62;26.86
77212;BME280;66206;0.000;0.000;2023-04-25T06:53:32;97139.08;;;21.61;26.96
77212;BME280;66206;0.000;0.000;2023-04-25T06:55:59;97138.47;;;21.76;26.96
77212;BME280;66206;0.000;0.000;2023-04-25T06:58:25;97137.55;;;21.69;26.92
77212;BME280;66206;0.000;0.000;2023-04-25T07:00:52;97137.76;;;21.53;27.03
77212;BME280;66206;0.000;0.000;2023-04-25T07:03:19;97139.54;;;21.76;26.97
77212;BME280;66206;0.000;0.000;2023-04-25T07:05:45;97143.63;;;21.88;26.91
77212;BME280;66206;0.000;0.000;2023-04-25T07:08:12;97141.00;;;21.75;26.95
77212;BME280;66206;0.000;0.000;2023-04-25T07:10:38;97144.84;;;21.78;26.98
77212;BME280;66206;0.000;0.000;2023-04-25T07:13:05;97147.91;;;21.96;27.61
77212;BME280;66206;0.000;0.000;2023-04-25T07:15:33;97146.78;;;21.72;27.39
77212;BME280;66206;0.000;0.000;2023-04-25T07:18:01;97149.61;;;21.81;27.37
77212;BME280;66206;0.000;0.000;2023-04-25T07:20:29;97149.57;;;21.98;28.23
77212;BME280;66206;0.000;0.000;2023-04-25T07:22:57;97155.62;;;21.98;29.13
77212;BME280;66206;0.000;0.000;2023-04-25T07:25:24;97161.79;;;21.40;29.61
77212;BME280;66206;0.000;0.000;2023-04-25T07:27:51;97167.53;;;21.66;29.29
77212;BME280;66206;0.000;0.000;2023-04-25T07:30:19;97171.76;;;21.67;29.19
77212;BME280;66206;0.000;0.000;2023-04-25T07:32:46;97180.55;;;21.67;28.42
77212;BME280;66206;0.000;0.000;2023-04-25T07:35:14;97182.93;;;21.92;28.38
77212;BME280;66206;0.000;0.000;2023-04-25T07:37:41;97181.66;;;22.10;28.69
77212;BME280;66206;0.000;0.000;2023-04-25T07:40:09;97185.40;;;22.33;28.39
77212;BME280;66206;0.000;0.000;2023-04-25T07:42:38;97188.00;;;22.35;28.56
77212;BME280;66206;0.000;0.000;2023-04-25T07:45:06;97186.23;;;22.39;28.67
77212;BME280;66206;0.000;0.000;2023-04-25T07:47:34;97190.97;;;22.63;28.43
77212;BME280;66206;0.000;0.000;2023-04-25T07:50:01;97184.48;;;22.69;28.48
77212;BME280;66206;0.000;0.000;2023-04-25T07:52:29;97191.67;;;22.41;28.64
77212;BME280;66206;0.000;0.000;2023-04-25T07:54:56;97188.66;;;21.98;28.64
77212;BME280;66206;0.000;0.000;2023-04-25T07:57:23;97191.54;;;22.38;28.70
77212;BME280;66206;0.000;0.000;2023-04-25T07:59:50;97199.97;;;22.60;28.53
77212;BME280;66206;0.000;0.000;2023-04-25T08:02:17;97202.96;;;22.59;28.66
77212;BME280;66206;0.000;0.000;2023-04-25T08:04:45;97206.46;;;22.66;28.52
77212;BME280;66206;0.000;0.000;2023-04-25T08:07:14;97209.68;;;22.65;28.55
77212;BME280;66206;0.000;0.000;2023-04-25T08:09:41;97213.67;;;22.75;28.56
77212;BME280;66206;0.000;0.000;2023-04-25T08:12:08;97209.64;;;22.69;28.68
77212;BME280;66206;0.000;0.000;2023-04-25T08:14:35;97205.78;;;22.80;28.62
77212;BME280;66206;0.000;0.000;2023-04-25T08:17:04;97212.95;;;22.85;28.49
77212;BME280;66206;0.000;0.000;2023-04-25T08:19:31;97217.12;;;23.01;28.46
77212;BME280;66206;0.000;0.000;2023-04-25T08:21:58;97216.64;;;22.95;28.52
77212;BME280;66206;0.000;0.000;2023-04-25T08:24:25;97217.83;;;22.85;28.57
77212;BME280;66206;0.000;0.000;2023-04-25T08:26:52;97219.81;;;23.12;28.41
77212;BME280;66206;0.000;0.000;2023-04-25T08:29:20;97222.80;;;23.23;28.42
77212;BME280;66206;0.000;0.000;2023-04-25T08:31:47;97226.87;;;23.17;28.48
77212;BME280;66206;0.000;0.000;2023-04-25T08:34:14;97227.51;;;22.85;28.82
77212;BME280;66206;0.000;0.000;2023-04-25T08:36:43;97225.00;;;22.98;28.71
77212;BME280;66206;0.000;0.000;2023-04-25T08:39:10;97224.53;;;23.09;28.61
77212;BME280;66206;0.000;0.000;2023-04-25T08:41:37;97223.41;;;22.96;28.59
77212;BME280;66206;0.000;0.000;2023-04-25T08:44:04;97224.86;;;23.10;28.59
77212;BME280;66206;0.000;0.000;2023-04-25T08:46:33;97230.20;;;22.90;28.78
77212;BME280;66206;0.000;0.000;2023-04-25T08:49:01;97227.80;;;23.01;28.87
77212;BME280;66206;0.000;0.000;2023-04-25T08:51:30;97229.66;;;22.91;29.01
77212;BME280;66206;0.000;0.000;2023-04-25T08:54:01;97233.87;;;23.10;28.72
77212;BME280;66206;0.000;0.000;2023-04-25T08:56:25;97238.38;;;23.16;28.69
77212;BME280;66206;0.000;0.000;2023-04-25T08:58:53;97238.47;;;23.09;28.74
77212;BME280;66206;0.000;0.000;2023-04-25T09:01:22;97238.45;;;22.52;29.06
77212;BME280;66206;0.000;0.000;2023-04-25T09:03:48;97242.72;;;22.60;29.10
77212;BME280;66206;0.000;0.000;2023-04-25T09:06:16;97243.87;;;22.66;28.74
77212;BME280;66206;0.000;0.000;2023-04-25T09:08:44;97244.33;;;22.55;28.65
77212;BME280;66206;0.000;0.000;2023-04-25T09:11:12;97249.24;;;22.84;28.38
77212;BME280;66206;0.000;0.000;2023-04-25T09:13:39;97252.10;;;22.62;28.57
77212;BME280;66206;0.000;0.000;2023-04-25T09:16:06;97246.69;;;22.96;28.46
77212;BME280;66206;0.000;0.000;2023-04-25T09:18:34;97250.08;;;22.48;28.71
77212;BME280;66206;0.000;0.000;2023-04-25T09:21:05;97252.37;;;22.62;28.67
77212;BME280;66206;0.000;0.000;2023-04-25T09:23:27;97253.43;;;22.60;28.72
77212;BME280;66206;0.000;0.000;2023-04-25T09:25:55;97253.68;;;22.43;28.57
77212;BME280;66206;0.000;0.000;2023-04-25T09:28:23;97257.10;;;21.99;29.42
77212;BME280;66206;0.000;0.000;2023-04-25T09:30:53;97259.57;;;23.12;28.55
77212;BME280;66206;0.000;0.000;2023-04-25T09:33:23;97256.71;;;22.80;28.70
77212;BME280;66206;0.000;0.000;2023-04-25T09:35:48;97256.90;;;22.88;28.63
77212;BME280;66206;0.000;0.000;2023-04-25T09:38:16;97257.59;;;22.92;28.69
77212;BME280;66206;0.000;0.000;2023-04-25T09:40:45;97259.55;;;22.67;28.92
77212;BME280;66206;0.000;0.000;2023-04-25T09:43:18;97263.23;;;22.74;28.84
77212;BME280;66206;0.000;0.000;2023-04-25T09:45:42;97263.60;;;22.33;29.19
77212;BME280;66206;0.000;0.000;2023-04-25T09:48:11;97262.74;;;22.89;28.89
77212;BME280;66206;0.000;0.000;2023-04-25T09:50:38;97255.56;;;22.93;28.73
77212;BME280;66206;0.000;0.000;2023-04-25T09:53:07;97253.03;;;23.03;28.68
77212;BME280;66206;0.000;0.000;2023-04-25T09:55:35;97256.37;;;23.16;28.81
77212;BME280;66206;0.000;0.000;2023-04-25T09:58:04;97259.84;;;22.99;28.73
77212;BME280;66206;0.000;0.000;2023-04-25T10:00:33;97253.06;;;23.07;28.77
77212;BME280;66206;0.000;0.000;2023-04-25T10:03:01;97250.15;;;23.00;28.77
77212;BME280;66206;0.000;0.000;2023-04-25T10:05:30;97246.84;;;22.91;28.87
77212;BME280;66206;0.000;0.000;2023-04-25T10:07:54;97243.35;;;23.15;28.63
77212;BME280;66206;0.000;0.000;2023-04-25T10:10:22;97246.95;;;23.00;28.74
77212;BME280;66206;0.000;0.000;2023-04-25T10:12:50;97252.35;;;23.16;28.57
77212;BME280;66206;0.000;0.000;2023-04-25T10:15:17;97258.56;;;22.99;28.70
77212;BME280;66206;0.000;0.000;2023-04-25T10:17:45;97262.92;;;22.90;28.84
77212;BME280;66206;0.000;0.000;2023-04-25T10:20:13;97262.02;;;22.89;28.72
77212;BME280;66206;0.000;0.000;2023-04-25T10:22:42;97256.05;;;22.90;29.19
77212;BME280;66206;0.000;0.000;2023-04-25T10:25:10;97250.65;;;22.81;28.89
77212;BME280;66206;0.000;0.000;2023-04-25T10:27:38;97261.00;;;22.63;29.19
77212;BME280;66206;0.000;0.000;2023-04-25T10:30:07;97256.43;;;22.90;28.99
77212;BME280;66206;0.000;0.000;2023-04-25T10:32:34;97254.68;;;22.52;29.27
77212;BME280;66206;0.000;0.000;2023-04-25T10:35:19;97253.92;;;22.73;29.00
77212;BME280;66206;0.000;0.000;2023-04-25T10:37:30;97249.77;;;22.97;28.92
77212;BME280;66206;0.000;0.000;2023-04-25T10:39:58;97246.06;;;22.84;28.73
77212;BME280;66206;0.000;0.000;2023-04-25T10:42:24;97245.05;;;22.90;28.71
77212;BME280;66206;0.000;0.000;2023-04-25T10:45:01;97243.88;;;23.02;28.63
77212;BME280;66206;0.000;0.000;2023-04-25T10:47:18;97246.38;;;23.32;28.40
77212;BME280;66206;0.000;0.000;2023-04-25T10:49:46;97247.90;;;23.15;28.55
77212;BME280;66206;0.000;0.000;2023-04-25T10:52:17;97254.28;;;22.86;28.94
77212;BME280;66206;0.000;0.000;2023-04-25T10:54:40;97251.52;;;23.52;28.16
77212;BME280;66206;0.000;0.000;2023-04-25T10:57:08;97252.84;;;23.61;27.97
77212;BME280;66206;0.000;0.000;2023-04-25T10:59:38;97254.80;;;23.63;27.94
77212;BME280;66206;0.000;0.000;2023-04-25T11:02:12;97250.34;;;23.56;28.02
77212;BME280;66206;0.000;0.000;2023-04-25T11:04:34;97250.07;;;23.83;27.79
77212;BME280;66206;0.000;0.000;2023-04-25T11:07:05;97254.63;;;23.77;27.78
77212;BME280;66206;0.000;0.000;2023-04-25T11:09:29;97258.11;;;23.18;28.60
77212;BME280;66206;0.000;0.000;2023-04-25T11:11:58;97255.47;;;23.01;28.72
77212;BME280;66206;0.000;0.000;2023-04-25T11:14:26;97263.52;;;23.17;28.71
77212;BME280;66206;0.000;0.000;2023-04-25T11:16:53;97257.96;;;22.95;28.92
77212;BME280;66206;0.000;0.000;2023-04-25T11:19:21;97253.02;;;23.09;28.75
77212;BME280;66206;0.000;0.000;2023-04-25T11:21:49;97252.88;;;23.10;28.84
77212;BME280;66206;0.000;0.000;2023-04-25T11:24:17;97259.18;;;23.05;28.89
77212;BME280;66206;0.000;0.000;2023-04-25T11:26:45;97264.02;;;22.93;28.94
77212;BME280;66206;0.000;0.000;2023-04-25T11:29:13;97262.36;;;23.13;28.80
77212;BME280;66206;0.000;0.000;2023-04-25T11:31:43;97257.44;;;23.00;28.80
77212;BME280;66206;0.000;0.000;2023-04-25T11:34:11;97260.07;;;23.00;28.75
77212;BME280;66206;0.000;0.000;2023-04-25T11:36:38;97261.17;;;23.15;28.62
77212;BME280;66206;0.000;0.000;2023-04-25T11:39:06;97262.31;;;22.93;28.74
77212;BME280;66206;0.000;0.000;2023-04-25T11:41:33;97269.76;;;22.98;28.75
77212;BME280;66206;0.000;0.000;2023-04-25T11:44:00;97265.57;;;23.26;28.52
77212;BME280;66206;0.000;0.000;2023-04-25T11:46:28;97273.82;;;23.12;28.76
77212;BME280;66206;0.000;0.000;2023-04-25T11:48:55;97273.12;;;23.11;28.58
77212;BME280;66206;0.000;0.000;2023-04-25T11:51:23;97275.61;;;23.07;28.69
77212;BME280;66206;0.000;0.000;2023-04-25T11:53:50;97278.84;;;22.77;28.97
77212;BME280;66206;0.000;0.000;2023-04-25T11:56:19;97279.08;;;23.07;28.75
77212;BME280;66206;0.000;0.000;2023-04-25T11:58:54;97280.94;;;23.11;28.73
77212;BME280;66206;0.000;0.000;2023-04-25T12:01:25;97284.76;;;23.04;28.77
77212;BME280;66206;0.000;0.000;2023-04-25T12:03:46;97275.57;;;23.09;28.64
77212;BME280;66206;0.000;0.000;2023-04-25T12:06:08;97277.50;;;23.17;28.73
77212;BME280;66206;0.000;0.000;2023-04-25T12:08:36;97278.15;;;23.31;28.35
77212;BME280;66206;0.000;0.000;2023-04-25T12:11:04;97282.29;;;23.13;28.66
77212;BME280;66206;0.000;0.000;2023-04-25T12:13:31;97287.07;;;23.12;28.55
77212;BME280;66206;0.000;0.000;2023-04-25T12:15:58;97284.97;;;23.28;28.48
77212;BME280;66206;0.000;0.000;2023-04-25T12:18:27;97293.68;;;23.13;28.64
77212;BME280;66206;0.000;0.000;2023-04-25T12:20:54;97302.68;;;22.86;28.93
77212;BME280;66206;0.000;0.000;2023-04-25T12:23:25;97304.93;;;23.18;28.74
77212;BME280;66206;0.000;0.000;2023-04-25T12:25:48;97305.51;;;23.00;28.82
77212;BME280;66206;0.000;0.000;2023-04-25T12:28:15;97304.52;;;22.95;28.93
77212;BME280;66206;0.000;0.000;2023-04-25T12:30:59;97308.79;;;23.06;28.78
77212;BME280;66206;0.000;0.000;2023-04-25T12:33:11;97307.87;;;23.18;28.63
77212;BME280;66206;0.000;0.000;2023-04-25T12:35:38;97308.69;;;23.10;28.73
77212;BME280;66206;0.000;0.000;2023-04-25T12:38:05;97313.90;;;23.33;28.58
77212;BME280;66206;0.000;0.000;2023-04-25T12:40:33;97319.52;;;23.43;28.55
77212;BME280;66206;0.000;0.000;2023-04-25T12:43:00;97318.71;;;23.06;28.87
77212;BME280;66206;0.000;0.000;2023-04-25T12:45:27;97316.15;;;22.95;28.95
77212;BME280;66206;0.000;0.000;2023-04-25T12:47:55;97318.05;;;22.93;28.93
77212;BME280;66206;0.000;0.000;2023-04-25T12:50:22;97325.84;;;22.94;28.93
77212;BME280;66206;0.000;0.000;2023-04-25T12:52:50;97323.47;;;23.09;28.82
77212;BME280;66206;0.000;0.000;2023-04-25T12:55:18;97323.43;;;23.05;28.98
77212;BME280;66206;0.000;0.000;2023-04-25T12:57:45;97325.69;;;23.15;28.67
77212;BME280;66206;0.000;0.000;2023-04-25T13:00:13;97329.78;;;23.00;28.72
77212;BME280;66206;0.000;0.000;2023-04-25T13:02:41;97332.44;;;23.30;28.57
77212;BME280;66206;0.000;0.000;2023-04-25T13:05:09;97330.51;;;23.24;28.58
77212;BME280;66206;0.000;0.000;2023-04-25T13:07:36;97335.16;;;23.18;28.78